sensor_id;sensor_type;location;lat;lon;timestamp;P1;durP1;ratioP1;P2;durP2;ratioP2
43678;SDS011;29279;50.858;4.392;2023-08-01T00:01:30;6.45;;;2.03;;
43678;SDS011;29279;50.858;4.392;2023-08-01T00:03:57;8.07;;;2.67;;
43678;SDS011;29279;50.858;4.392;2023-08-01T00:06:22;4.80;;;1.90;;
43678;SDS011;29279;50.858;4.392;2023-08-01T00:08:49;4.63;;;1.77;;
43678;SDS011;29279;50.858;4.392;2023-08-01T00:11:15;4.43;;;1.77;;
43678;SDS011;29279;50.858;4.392;2023-08-01T00:13:41;7.50;;;2.20;;
43678;SDS011;29279;50.858;4.392;2023-08-01T00:16:08;4.32;;;2.03;;
43678;SDS011;29279;50.858;4.392;2023-08-01T00:18:34;8.55;;;2.55;;
43678;SDS011;29279;50.858;4.392;2023-08-01T00:21:00;6.05;;;2.25;;
43678;SDS011;29279;50.858;4.392;2023-08-01T00:23:25;4.50;;;2.30;;
43678;SDS011;29279;50.858;4.392;2023-08-01T00:25:51;4.95;;;2.33;;
43678;SDS011;29279;50.858;4.392;2023-08-01T00:28:17;8.55;;;2.30;;
43678;SDS011;29279;50.858;4.392;2023-08-01T00:30:43;5.55;;;2.78;;
43678;SDS011;29279;50.858;4.392;2023-08-01T00:33:09;6.32;;;2.60;;
43678;SDS011;29279;50.858;4.392;2023-08-01T00:35:35;10.10;;;2.70;;
43678;SDS011;29279;50.858;4.392;2023-08-01T00:38:00;5.60;;;2.60;;
43678;SDS011;29279;50.858;4.392;2023-08-01T00:40:32;5.07;;;2.65;;
43678;SDS011;29279;50.858;4.392;2023-08-01T00:45:25;13.63;;;2.95;;
43678;SDS011;29279;50.858;4.392;2023-08-01T00:47:51;11.20;;;3.28;;
43678;SDS011;29279;50.858;4.392;2023-08-01T00:50:18;7.40;;;2.88;;
43678;SDS011;29279;50.858;4.392;2023-08-01T00:52:45;12.82;;;3.42;;
43678;SDS011;29279;50.858;4.392;2023-08-01T00:55:12;5.70;;;2.40;;
43678;SDS011;29279;50.858;4.392;2023-08-01T00:57:39;8.18;;;3.30;;
43678;SDS011;29279;50.858;4.392;2023-08-01T01:00:05;9.65;;;2.83;;
43678;SDS011;29279;50.858;4.392;2023-08-01T01:02:31;7.13;;;2.88;;
43678;SDS011;29279;50.858;4.392;2023-08-01T01:04:57;13.27;;;3.53;;
43678;SDS011;29279;50.858;4.392;2023-08-01T01:07:23;4.47;;;2.47;;
43678;SDS011;29279;50.858;4.392;2023-08-01T01:09:52;7.63;;;3.47;;
43678;SDS011;29279;50.858;4.392;2023-08-01T01:12:18;12.02;;;4.03;;
43678;SDS011;29279;50.858;4.392;2023-08-01T01:14:43;10.38;;;3.67;;
43678;SDS011;29279;50.858;4.392;2023-08-01T01:17:09;11.00;;;3.70;;
43678;SDS011;29279;50.858;4.392;2023-08-01T01:19:35;7.38;;;3.55;;
43678;SDS011;29279;50.858;4.392;2023-08-01T01:22:01;16.17;;;3.90;;
43678;SDS011;29279;50.858;4.392;2023-08-01T01:24:29;8.13;;;3.58;;
43678;SDS011;29279;50.858;4.392;2023-08-01T01:26:57;7.72;;;3.92;;
43678;SDS011;29279;50.858;4.392;2023-08-01T01:29:25;13.00;;;4.20;;
43678;SDS011;29279;50.858;4.392;2023-08-01T01:31:52;9.52;;;4.55;;
43678;SDS011;29279;50.858;4.392;2023-08-01T01:34:18;12.30;;;4.05;;
43678;SDS011;29279;50.858;4.392;2023-08-01T01:36:44;12.55;;;4.35;;
43678;SDS011;29279;50.858;4.392;2023-08-01T01:39:10;12.35;;;4.78;;
43678;SDS011;29279;50.858;4.392;2023-08-01T01:41:35;13.52;;;5.65;;
43678;SDS011;29279;50.858;4.392;2023-08-01T01:44:01;10.38;;;4.75;;
43678;SDS011;29279;50.858;4.392;2023-08-01T01:46:27;15.65;;;4.82;;
43678;SDS011;29279;50.858;4.392;2023-08-01T01:48:52;14.43;;;5.45;;
43678;SDS011;29279;50.858;4.392;2023-08-01T01:51:19;16.85;;;5.40;;
43678;SDS011;29279;50.858;4.392;2023-08-01T01:53:46;19.58;;;5.85;;
43678;SDS011;29279;50.858;4.392;2023-08-01T01:56:12;13.85;;;5.22;;
43678;SDS011;29279;50.858;4.392;2023-08-01T01:58:37;13.70;;;5.60;;
43678;SDS011;29279;50.858;4.392;2023-08-01T02:01:03;14.48;;;5.00;;
43678;SDS011;29279;50.858;4.392;2023-08-01T02:03:29;13.38;;;5.40;;
43678;SDS011;29279;50.858;4.392;2023-08-01T02:05:54;10.85;;;5.57;;
43678;SDS011;29279;50.858;4.392;2023-08-01T02:08:20;15.75;;;5.35;;
43678;SDS011;29279;50.858;4.392;2023-08-01T02:10:45;10.63;;;4.78;;
43678;SDS011;29279;50.858;4.392;2023-08-01T02:13:12;17.00;;;5.80;;
43678;SDS011;29279;50.858;4.392;2023-08-01T02:15:38;16.88;;;5.43;;
43678;SDS011;29279;50.858;4.392;2023-08-01T02:18:03;15.60;;;5.80;;
43678;SDS011;29279;50.858;4.392;2023-08-01T02:20:29;17.48;;;5.43;;
43678;SDS011;29279;50.858;4.392;2023-08-01T02:22:55;13.93;;;5.72;;
43678;SDS011;29279;50.858;4.392;2023-08-01T02:25:20;16.65;;;5.40;;
43678;SDS011;29279;50.858;4.392;2023-08-01T02:27:46;14.45;;;5.82;;
43678;SDS011;29279;50.858;4.392;2023-08-01T02:30:11;14.15;;;5.40;;
43678;SDS011;29279;50.858;4.392;2023-08-01T02:32:37;16.42;;;6.63;;
43678;SDS011;29279;50.858;4.392;2023-08-01T02:35:03;18.00;;;5.95;;
43678;SDS011;29279;50.858;4.392;2023-08-01T02:37:29;17.65;;;6.55;;
43678;SDS011;29279;50.858;4.392;2023-08-01T02:39:54;13.50;;;6.75;;
43678;SDS011;29279;50.858;4.392;2023-08-01T02:42:20;19.88;;;6.97;;
43678;SDS011;29279;50.858;4.392;2023-08-01T02:44:46;16.02;;;6.28;;
43678;SDS011;29279;50.858;4.392;2023-08-01T02:47:11;14.82;;;7.43;;
43678;SDS011;29279;50.858;4.392;2023-08-01T02:49:37;19.70;;;6.82;;
43678;SDS011;29279;50.858;4.392;2023-08-01T02:52:03;24.45;;;7.10;;
43678;SDS011;29279;50.858;4.392;2023-08-01T02:54:29;16.08;;;6.93;;
43678;SDS011;29279;50.858;4.392;2023-08-01T02:56:54;18.88;;;6.78;;
43678;SDS011;29279;50.858;4.392;2023-08-01T02:59:20;13.70;;;6.10;;
43678;SDS011;29279;50.858;4.392;2023-08-01T03:01:47;19.92;;;6.78;;
43678;SDS011;29279;50.858;4.392;2023-08-01T03:04:13;19.20;;;6.65;;
43678;SDS011;29279;50.858;4.392;2023-08-01T03:06:40;15.77;;;7.20;;
43678;SDS011;29279;50.858;4.392;2023-08-01T03:09:05;17.08;;;6.90;;
43678;SDS011;29279;50.858;4.392;2023-08-01T03:11:33;19.65;;;7.78;;
43678;SDS011;29279;50.858;4.392;2023-08-01T03:14:02;18.00;;;7.57;;
43678;SDS011;29279;50.858;4.392;2023-08-01T03:16:29;21.52;;;7.80;;
43678;SDS011;29279;50.858;4.392;2023-08-01T03:18:56;20.83;;;7.40;;
43678;SDS011;29279;50.858;4.392;2023-08-01T03:21:21;24.98;;;8.20;;
43678;SDS011;29279;50.858;4.392;2023-08-01T03:23:47;22.10;;;7.63;;
43678;SDS011;29279;50.858;4.392;2023-08-01T03:26:13;23.83;;;9.30;;
43678;SDS011;29279;50.858;4.392;2023-08-01T03:28:40;18.73;;;6.45;;
43678;SDS011;29279;50.858;4.392;2023-08-01T03:31:06;27.25;;;7.45;;
43678;SDS011;29279;50.858;4.392;2023-08-01T03:33:32;22.92;;;7.43;;
43678;SDS011;29279;50.858;4.392;2023-08-01T03:35:58;24.17;;;7.90;;
43678;SDS011;29279;50.858;4.392;2023-08-01T03:38:24;18.65;;;7.30;;
43678;SDS011;29279;50.858;4.392;2023-08-01T03:40:50;18.65;;;6.80;;
43678;SDS011;29279;50.858;4.392;2023-08-01T03:43:15;26.70;;;8.07;;
43678;SDS011;29279;50.858;4.392;2023-08-01T03:45:41;20.70;;;7.32;;
43678;SDS011;29279;50.858;4.392;2023-08-01T03:48:07;18.92;;;7.38;;
43678;SDS011;29279;50.858;4.392;2023-08-01T03:50:32;28.10;;;7.97;;
43678;SDS011;29279;50.858;4.392;2023-08-01T03:52:58;20.58;;;6.78;;
43678;SDS011;29279;50.858;4.392;2023-08-01T03:55:24;27.15;;;6.90;;
43678;SDS011;29279;50.858;4.392;2023-08-01T03:57:49;27.33;;;8.15;;
43678;SDS011;29279;50.858;4.392;2023-08-01T04:00:15;21.27;;;7.70;;
43678;SDS011;29279;50.858;4.392;2023-08-01T04:02:43;28.13;;;8.05;;
43678;SDS011;29279;50.858;4.392;2023-08-01T04:05:09;21.42;;;7.68;;
43678;SDS011;29279;50.858;4.392;2023-08-01T04:07:36;20.42;;;7.45;;
43678;SDS011;29279;50.858;4.392;2023-08-01T04:10:03;25.75;;;8.52;;
43678;SDS011;29279;50.858;4.392;2023-08-01T04:12:30;31.35;;;8.02;;
43678;SDS011;29279;50.858;4.392;2023-08-01T04:14:57;32.80;;;8.57;;
43678;SDS011;29279;50.858;4.392;2023-08-01T04:17:23;27.20;;;8.02;;
43678;SDS011;29279;50.858;4.392;2023-08-01T04:19:49;23.95;;;8.35;;
43678;SDS011;29279;50.858;4.392;2023-08-01T04:22:14;22.10;;;7.82;;
43678;SDS011;29279;50.858;4.392;2023-08-01T04:24:40;19.98;;;7.93;;
43678;SDS011;29279;50.858;4.392;2023-08-01T04:27:06;22.83;;;8.15;;
43678;SDS011;29279;50.858;4.392;2023-08-01T04:29:32;22.15;;;7.47;;
43678;SDS011;29279;50.858;4.392;2023-08-01T04:31:57;22.95;;;7.57;;
43678;SDS011;29279;50.858;4.392;2023-08-01T04:34:23;28.58;;;8.63;;
43678;SDS011;29279;50.858;4.392;2023-08-01T04:36:49;24.65;;;8.77;;
43678;SDS011;29279;50.858;4.392;2023-08-01T04:39:14;18.27;;;7.75;;
43678;SDS011;29279;50.858;4.392;2023-08-01T04:41:40;24.60;;;8.60;;
43678;SDS011;29279;50.858;4.392;2023-08-01T04:44:06;24.55;;;8.68;;
43678;SDS011;29279;50.858;4.392;2023-08-01T04:46:32;22.13;;;7.75;;
43678;SDS011;29279;50.858;4.392;2023-08-01T04:48:57;25.85;;;8.77;;
43678;SDS011;29279;50.858;4.392;2023-08-01T04:51:27;27.05;;;8.75;;
43678;SDS011;29279;50.858;4.392;2023-08-01T04:53:52;24.73;;;9.02;;
43678;SDS011;29279;50.858;4.392;2023-08-01T04:56:18;27.75;;;8.75;;
43678;SDS011;29279;50.858;4.392;2023-08-01T04:58:44;25.30;;;8.45;;
43678;SDS011;29279;50.858;4.392;2023-08-01T05:01:09;20.73;;;8.48;;
43678;SDS011;29279;50.858;4.392;2023-08-01T05:03:35;24.27;;;8.15;;
43678;SDS011;29279;50.858;4.392;2023-08-01T05:06:01;23.05;;;7.75;;
43678;SDS011;29279;50.858;4.392;2023-08-01T05:08:26;24.58;;;8.23;;
43678;SDS011;29279;50.858;4.392;2023-08-01T05:10:52;18.48;;;7.32;;
43678;SDS011;29279;50.858;4.392;2023-08-01T05:13:18;23.38;;;7.82;;
43678;SDS011;29279;50.858;4.392;2023-08-01T05:15:44;28.38;;;8.55;;
43678;SDS011;29279;50.858;4.392;2023-08-01T05:18:14;27.13;;;7.60;;
43678;SDS011;29279;50.858;4.392;2023-08-01T05:20:41;24.33;;;7.72;;
43678;SDS011;29279;50.858;4.392;2023-08-01T05:23:06;22.33;;;7.20;;
43678;SDS011;29279;50.858;4.392;2023-08-01T05:25:32;24.00;;;8.02;;
43678;SDS011;29279;50.858;4.392;2023-08-01T05:27:58;24.17;;;8.07;;
43678;SDS011;29279;50.858;4.392;2023-08-01T05:30:24;23.88;;;8.95;;
43678;SDS011;29279;50.858;4.392;2023-08-01T05:32:50;24.75;;;7.65;;
43678;SDS011;29279;50.858;4.392;2023-08-01T05:35:15;25.70;;;8.05;;
43678;SDS011;29279;50.858;4.392;2023-08-01T05:37:42;17.88;;;7.40;;
43678;SDS011;29279;50.858;4.392;2023-08-01T05:40:07;25.75;;;7.68;;
43678;SDS011;29279;50.858;4.392;2023-08-01T05:42:34;20.27;;;7.40;;
43678;SDS011;29279;50.858;4.392;2023-08-01T05:44:59;24.77;;;8.15;;
43678;SDS011;29279;50.858;4.392;2023-08-01T05:47:25;27.10;;;7.43;;
43678;SDS011;29279;50.858;4.392;2023-08-01T05:49:51;25.30;;;7.85;;
43678;SDS011;29279;50.858;4.392;2023-08-01T05:52:16;21.77;;;7.85;;
43678;SDS011;29279;50.858;4.392;2023-08-01T05:54:42;26.80;;;8.15;;
43678;SDS011;29279;50.858;4.392;2023-08-01T05:57:08;17.02;;;7.03;;
43678;SDS011;29279;50.858;4.392;2023-08-01T05:59:33;27.23;;;7.47;;
43678;SDS011;29279;50.858;4.392;2023-08-01T06:01:59;24.35;;;7.72;;
43678;SDS011;29279;50.858;4.392;2023-08-01T06:04:25;23.00;;;7.40;;
43678;SDS011;29279;50.858;4.392;2023-08-01T06:06:51;19.73;;;6.45;;
43678;SDS011;29279;50.858;4.392;2023-08-01T06:09:17;21.48;;;6.97;;
43678;SDS011;29279;50.858;4.392;2023-08-01T06:11:43;24.23;;;6.82;;
43678;SDS011;29279;50.858;4.392;2023-08-01T06:14:09;20.50;;;7.03;;
43678;SDS011;29279;50.858;4.392;2023-08-01T06:16:35;26.73;;;7.32;;
43678;SDS011;29279;50.858;4.392;2023-08-01T06:19:00;23.40;;;7.07;;
43678;SDS011;29279;50.858;4.392;2023-08-01T06:21:26;22.98;;;7.38;;
43678;SDS011;29279;50.858;4.392;2023-08-01T06:23:52;21.65;;;7.68;;
43678;SDS011;29279;50.858;4.392;2023-08-01T06:26:18;22.65;;;6.78;;
43678;SDS011;29279;50.858;4.392;2023-08-01T06:28:43;22.00;;;6.65;;
43678;SDS011;29279;50.858;4.392;2023-08-01T06:31:09;20.77;;;7.40;;
43678;SDS011;29279;50.858;4.392;2023-08-01T06:33:34;23.85;;;7.07;;
43678;SDS011;29279;50.858;4.392;2023-08-01T06:36:00;17.02;;;6.57;;
43678;SDS011;29279;50.858;4.392;2023-08-01T06:38:26;21.67;;;7.63;;
43678;SDS011;29279;50.858;4.392;2023-08-01T06:40:51;28.38;;;7.18;;
43678;SDS011;29279;50.858;4.392;2023-08-01T06:43:17;19.13;;;7.55;;
43678;SDS011;29279;50.858;4.392;2023-08-01T06:45:43;17.17;;;6.60;;
43678;SDS011;29279;50.858;4.392;2023-08-01T06:48:08;23.85;;;7.63;;
43678;SDS011;29279;50.858;4.392;2023-08-01T06:50:34;20.77;;;7.03;;
43678;SDS011;29279;50.858;4.392;2023-08-01T06:53:00;23.95;;;7.53;;
43678;SDS011;29279;50.858;4.392;2023-08-01T06:55:26;15.30;;;6.68;;
43678;SDS011;29279;50.858;4.392;2023-08-01T06:57:52;15.57;;;6.78;;
43678;SDS011;29279;50.858;4.392;2023-08-01T07:00:18;22.38;;;7.30;;
43678;SDS011;29279;50.858;4.392;2023-08-01T07:02:43;23.48;;;7.05;;
43678;SDS011;29279;50.858;4.392;2023-08-01T07:05:09;16.85;;;6.28;;
43678;SDS011;29279;50.858;4.392;2023-08-01T07:07:39;17.25;;;6.60;;
43678;SDS011;29279;50.858;4.392;2023-08-01T07:10:04;16.83;;;6.38;;
43678;SDS011;29279;50.858;4.392;2023-08-01T07:12:30;19.13;;;6.97;;
43678;SDS011;29279;50.858;4.392;2023-08-01T07:14:56;17.20;;;6.43;;
43678;SDS011;29279;50.858;4.392;2023-08-01T07:17:22;20.10;;;6.40;;
43678;SDS011;29279;50.858;4.392;2023-08-01T07:19:47;23.52;;;5.80;;
43678;SDS011;29279;50.858;4.392;2023-08-01T07:22:13;20.08;;;6.25;;
43678;SDS011;29279;50.858;4.392;2023-08-01T07:24:39;15.88;;;6.18;;
43678;SDS011;29279;50.858;4.392;2023-08-01T07:27:05;17.23;;;5.43;;
43678;SDS011;29279;50.858;4.392;2023-08-01T07:29:31;22.98;;;6.13;;
43678;SDS011;29279;50.858;4.392;2023-08-01T07:31:56;22.00;;;5.90;;
43678;SDS011;29279;50.858;4.392;2023-08-01T07:34:22;20.58;;;5.85;;
43678;SDS011;29279;50.858;4.392;2023-08-01T07:36:48;20.98;;;5.97;;
43678;SDS011;29279;50.858;4.392;2023-08-01T07:39:14;16.30;;;5.57;;
43678;SDS011;29279;50.858;4.392;2023-08-01T07:41:40;19.98;;;6.13;;
43678;SDS011;29279;50.858;4.392;2023-08-01T07:44:06;13.32;;;5.70;;
43678;SDS011;29279;50.858;4.392;2023-08-01T07:46:32;23.90;;;6.57;;
43678;SDS011;29279;50.858;4.392;2023-08-01T07:48:58;16.83;;;6.20;;
43678;SDS011;29279;50.858;4.392;2023-08-01T07:51:24;24.35;;;6.00;;
43678;SDS011;29279;50.858;4.392;2023-08-01T07:53:51;23.55;;;5.60;;
43678;SDS011;29279;50.858;4.392;2023-08-01T07:56:18;22.00;;;6.88;;
43678;SDS011;29279;50.858;4.392;2023-08-01T07:58:44;19.10;;;6.22;;
43678;SDS011;29279;50.858;4.392;2023-08-01T08:01:10;19.70;;;5.68;;
43678;SDS011;29279;50.858;4.392;2023-08-01T08:03:36;20.38;;;5.85;;
43678;SDS011;29279;50.858;4.392;2023-08-01T08:06:02;20.95;;;5.93;;
43678;SDS011;29279;50.858;4.392;2023-08-01T08:08:29;15.13;;;5.93;;
43678;SDS011;29279;50.858;4.392;2023-08-01T08:10:55;17.08;;;4.82;;
43678;SDS011;29279;50.858;4.392;2023-08-01T08:13:21;18.02;;;5.95;;
43678;SDS011;29279;50.858;4.392;2023-08-01T08:15:46;18.80;;;5.60;;
43678;SDS011;29279;50.858;4.392;2023-08-01T08:18:12;15.65;;;5.05;;
43678;SDS011;29279;50.858;4.392;2023-08-01T08:20:42;13.27;;;4.97;;
43678;SDS011;29279;50.858;4.392;2023-08-01T08:23:09;16.90;;;4.80;;
43678;SDS011;29279;50.858;4.392;2023-08-01T08:25:36;17.42;;;5.07;;
43678;SDS011;29279;50.858;4.392;2023-08-01T08:28:02;18.98;;;4.72;;
43678;SDS011;29279;50.858;4.392;2023-08-01T08:30:28;16.95;;;4.65;;
43678;SDS011;29279;50.858;4.392;2023-08-01T08:32:53;16.30;;;4.72;;
43678;SDS011;29279;50.858;4.392;2023-08-01T08:35:19;15.25;;;4.53;;
43678;SDS011;29279;50.858;4.392;2023-08-01T08:37:45;14.55;;;4.38;;
43678;SDS011;29279;50.858;4.392;2023-08-01T08:40:12;19.65;;;5.07;;
43678;SDS011;29279;50.858;4.392;2023-08-01T08:42:38;16.58;;;4.60;;
43678;SDS011;29279;50.858;4.392;2023-08-01T08:45:05;16.38;;;4.30;;
43678;SDS011;29279;50.858;4.392;2023-08-01T08:47:34;19.15;;;4.45;;
43678;SDS011;29279;50.858;4.392;2023-08-01T08:50:03;17.10;;;4.32;;
43678;SDS011;29279;50.858;4.392;2023-08-01T08:52:30;10.35;;;3.70;;
43678;SDS011;29279;50.858;4.392;2023-08-01T08:54:55;10.55;;;3.35;;
43678;SDS011;29279;50.858;4.392;2023-08-01T08:57:22;17.33;;;3.85;;
43678;SDS011;29279;50.858;4.392;2023-08-01T08:59:51;8.98;;;3.05;;
43678;SDS011;29279;50.858;4.392;2023-08-01T09:02:18;9.20;;;2.67;;
43678;SDS011;29279;50.858;4.392;2023-08-01T09:04:44;14.38;;;3.60;;
43678;SDS011;29279;50.858;4.392;2023-08-01T09:07:10;13.70;;;3.25;;
43678;SDS011;29279;50.858;4.392;2023-08-01T09:09:38;13.07;;;2.67;;
43678;SDS011;29279;50.858;4.392;2023-08-01T09:12:05;21.10;;;3.35;;
43678;SDS011;29279;50.858;4.392;2023-08-01T09:14:32;13.30;;;3.30;;
43678;SDS011;29279;50.858;4.392;2023-08-01T09:17:08;10.45;;;2.90;;
43678;SDS011;29279;50.858;4.392;2023-08-01T09:19:34;17.35;;;3.67;;
43678;SDS011;29279;50.858;4.392;2023-08-01T09:21:59;13.07;;;3.63;;
43678;SDS011;29279;50.858;4.392;2023-08-01T09:24:26;13.65;;;3.50;;
43678;SDS011;29279;50.858;4.392;2023-08-01T09:26:51;12.75;;;4.18;;
43678;SDS011;29279;50.858;4.392;2023-08-01T09:29:17;7.70;;;2.90;;
43678;SDS011;29279;50.858;4.392;2023-08-01T09:31:44;12.98;;;3.15;;
43678;SDS011;29279;50.858;4.392;2023-08-01T09:34:20;10.00;;;3.25;;
43678;SDS011;29279;50.858;4.392;2023-08-01T09:36:47;9.57;;;3.08;;
43678;SDS011;29279;50.858;4.392;2023-08-01T09:39:17;11.27;;;2.92;;
43678;SDS011;29279;50.858;4.392;2023-08-01T09:41:44;7.28;;;2.33;;
43678;SDS011;29279;50.858;4.392;2023-08-01T09:44:11;8.30;;;2.50;;
43678;SDS011;29279;50.858;4.392;2023-08-01T09:46:58;8.65;;;2.50;;
43678;SDS011;29279;50.858;4.392;2023-08-01T09:49:26;10.07;;;2.67;;
43678;SDS011;29279;50.858;4.392;2023-08-01T09:51:53;9.35;;;3.00;;
43678;SDS011;29279;50.858;4.392;2023-08-01T09:54:20;13.90;;;3.20;;
43678;SDS011;29279;50.858;4.392;2023-08-01T09:56:47;8.38;;;2.60;;
43678;SDS011;29279;50.858;4.392;2023-08-01T09:59:24;13.88;;;2.70;;
43678;SDS011;29279;50.858;4.392;2023-08-01T10:01:51;8.20;;;2.47;;
43678;SDS011;29279;50.858;4.392;2023-08-01T10:04:18;8.98;;;2.47;;
43678;SDS011;29279;50.858;4.392;2023-08-01T10:06:48;9.18;;;3.08;;
43678;SDS011;29279;50.858;4.392;2023-08-01T10:09:22;9.23;;;2.97;;
43678;SDS011;29279;50.858;4.392;2023-08-01T10:11:48;8.25;;;3.00;;
43678;SDS011;29279;50.858;4.392;2023-08-01T10:14:16;8.98;;;2.83;;
43678;SDS011;29279;50.858;4.392;2023-08-01T10:16:42;7.53;;;2.72;;
43678;SDS011;29279;50.858;4.392;2023-08-01T10:19:09;9.73;;;2.65;;
43678;SDS011;29279;50.858;4.392;2023-08-01T10:21:35;12.05;;;2.88;;
43678;SDS011;29279;50.858;4.392;2023-08-01T10:24:01;8.90;;;2.55;;
43678;SDS011;29279;50.858;4.392;2023-08-01T10:26:30;11.23;;;2.58;;
43678;SDS011;29279;50.858;4.392;2023-08-01T10:28:55;9.82;;;2.38;;
43678;SDS011;29279;50.858;4.392;2023-08-01T10:31:23;8.13;;;2.42;;
43678;SDS011;29279;50.858;4.392;2023-08-01T10:33:49;9.93;;;2.65;;
43678;SDS011;29279;50.858;4.392;2023-08-01T10:36:19;10.10;;;2.58;;
43678;SDS011;29279;50.858;4.392;2023-08-01T10:41:30;6.25;;;2.20;;
43678;SDS011;29279;50.858;4.392;2023-08-01T10:44:10;7.68;;;2.40;;
43678;SDS011;29279;50.858;4.392;2023-08-01T10:46:49;8.68;;;2.45;;
43678;SDS011;29279;50.858;4.392;2023-08-01T10:49:15;8.90;;;2.35;;
43678;SDS011;29279;50.858;4.392;2023-08-01T10:51:41;8.75;;;2.35;;
43678;SDS011;29279;50.858;4.392;2023-08-01T10:54:24;8.27;;;2.47;;
43678;SDS011;29279;50.858;4.392;2023-08-01T10:56:51;10.98;;;2.72;;
43678;SDS011;29279;50.858;4.392;2023-08-01T10:59:18;7.50;;;2.03;;
43678;SDS011;29279;50.858;4.392;2023-08-01T11:01:48;7.60;;;2.08;;
43678;SDS011;29279;50.858;4.392;2023-08-01T11:04:18;11.65;;;2.78;;
43678;SDS011;29279;50.858;4.392;2023-08-01T11:06:46;8.05;;;2.13;;
43678;SDS011;29279;50.858;4.392;2023-08-01T11:11:47;8.63;;;2.50;;
43678;SDS011;29279;50.858;4.392;2023-08-01T11:14:15;8.45;;;2.38;;
43678;SDS011;29279;50.858;4.392;2023-08-01T11:16:42;10.93;;;2.83;;
43678;SDS011;29279;50.858;4.392;2023-08-01T11:19:18;7.85;;;1.95;;
43678;SDS011;29279;50.858;4.392;2023-08-01T11:21:51;14.65;;;3.25;;
43678;SDS011;29279;50.858;4.392;2023-08-01T11:24:18;7.70;;;2.10;;
43678;SDS011;29279;50.858;4.392;2023-08-01T11:26:45;7.97;;;2.35;;
43678;SDS011;29279;50.858;4.392;2023-08-01T11:29:12;14.50;;;2.70;;
43678;SDS011;29279;50.858;4.392;2023-08-01T11:31:39;6.28;;;2.25;;
43678;SDS011;29279;50.858;4.392;2023-08-01T11:34:08;8.65;;;2.35;;
43678;SDS011;29279;50.858;4.392;2023-08-01T11:36:35;6.38;;;2.10;;
43678;SDS011;29279;50.858;4.392;2023-08-01T11:39:01;8.93;;;2.42;;
43678;SDS011;29279;50.858;4.392;2023-08-01T11:41:27;7.78;;;2.40;;
43678;SDS011;29279;50.858;4.392;2023-08-01T11:43:54;6.45;;;2.13;;
43678;SDS011;29279;50.858;4.392;2023-08-01T11:46:20;7.32;;;1.75;;
43678;SDS011;29279;50.858;4.392;2023-08-01T11:48:47;6.90;;;2.22;;
43678;SDS011;29279;50.858;4.392;2023-08-01T11:51:15;6.05;;;1.27;;
43678;SDS011;29279;50.858;4.392;2023-08-01T11:53:41;6.47;;;1.58;;
43678;SDS011;29279;50.858;4.392;2023-08-01T11:56:07;4.95;;;1.88;;
43678;SDS011;29279;50.858;4.392;2023-08-01T12:01:06;5.95;;;1.85;;
43678;SDS011;29279;50.858;4.392;2023-08-01T12:06:09;8.55;;;2.08;;
43678;SDS011;29279;50.858;4.392;2023-08-01T12:08:37;15.10;;;2.08;;
43678;SDS011;29279;50.858;4.392;2023-08-01T12:11:03;8.80;;;1.90;;
43678;SDS011;29279;50.858;4.392;2023-08-01T12:13:28;7.72;;;2.03;;
43678;SDS011;29279;50.858;4.392;2023-08-01T12:15:56;7.72;;;1.98;;
43678;SDS011;29279;50.858;4.392;2023-08-01T12:18:26;8.98;;;2.55;;
43678;SDS011;29279;50.858;4.392;2023-08-01T12:20:52;4.80;;;1.83;;
43678;SDS011;29279;50.858;4.392;2023-08-01T12:23:18;10.73;;;2.50;;
43678;SDS011;29279;50.858;4.392;2023-08-01T12:25:44;10.07;;;2.25;;
43678;SDS011;29279;50.858;4.392;2023-08-01T12:28:11;10.77;;;2.33;;
43678;SDS011;29279;50.858;4.392;2023-08-01T12:30:39;7.57;;;2.13;;
43678;SDS011;29279;50.858;4.392;2023-08-01T12:33:06;5.68;;;1.40;;
43678;SDS011;29279;50.858;4.392;2023-08-01T12:35:32;7.07;;;2.03;;
43678;SDS011;29279;50.858;4.392;2023-08-01T12:37:58;7.22;;;2.22;;
43678;SDS011;29279;50.858;4.392;2023-08-01T12:40:23;10.98;;;2.20;;
43678;SDS011;29279;50.858;4.392;2023-08-01T12:42:49;8.05;;;2.30;;
43678;SDS011;29279;50.858;4.392;2023-08-01T12:45:15;4.20;;;2.08;;
43678;SDS011;29279;50.858;4.392;2023-08-01T12:47:40;7.32;;;1.60;;
43678;SDS011;29279;50.858;4.392;2023-08-01T12:50:06;9.65;;;2.15;;
43678;SDS011;29279;50.858;4.392;2023-08-01T12:52:32;6.72;;;1.98;;
43678;SDS011;29279;50.858;4.392;2023-08-01T12:54:58;7.20;;;2.33;;
43678;SDS011;29279;50.858;4.392;2023-08-01T12:57:23;8.55;;;1.70;;
43678;SDS011;29279;50.858;4.392;2023-08-01T12:59:49;8.00;;;2.10;;
43678;SDS011;29279;50.858;4.392;2023-08-01T13:02:15;5.97;;;1.70;;
43678;SDS011;29279;50.858;4.392;2023-08-01T13:04:40;9.32;;;2.17;;
43678;SDS011;29279;50.858;4.392;2023-08-01T13:07:06;7.20;;;1.98;;
43678;SDS011;29279;50.858;4.392;2023-08-01T13:09:31;5.80;;;1.90;;
43678;SDS011;29279;50.858;4.392;2023-08-01T13:11:57;6.18;;;1.83;;
43678;SDS011;29279;50.858;4.392;2023-08-01T13:14:24;10.68;;;2.55;;
43678;SDS011;29279;50.858;4.392;2023-08-01T13:16:50;5.68;;;1.90;;
43678;SDS011;29279;50.858;4.392;2023-08-01T13:19:16;7.95;;;2.00;;
43678;SDS011;29279;50.858;4.392;2023-08-01T13:21:42;6.05;;;1.88;;
43678;SDS011;29279;50.858;4.392;2023-08-01T13:24:08;10.88;;;2.25;;
43678;SDS011;29279;50.858;4.392;2023-08-01T13:26:34;8.50;;;2.40;;
43678;SDS011;29279;50.858;4.392;2023-08-01T13:29:01;7.38;;;2.40;;
43678;SDS011;29279;50.858;4.392;2023-08-01T13:31:26;6.60;;;2.28;;
43678;SDS011;29279;50.858;4.392;2023-08-01T13:33:53;6.60;;;2.00;;
43678;SDS011;29279;50.858;4.392;2023-08-01T13:36:20;8.68;;;2.42;;
43678;SDS011;29279;50.858;4.392;2023-08-01T13:38:46;5.50;;;2.28;;
43678;SDS011;29279;50.858;4.392;2023-08-01T13:41:11;7.82;;;2.22;;
43678;SDS011;29279;50.858;4.392;2023-08-01T13:43:37;9.85;;;1.85;;
43678;SDS011;29279;50.858;4.392;2023-08-01T13:46:12;10.80;;;1.98;;
43678;SDS011;29279;50.858;4.392;2023-08-01T13:48:40;8.10;;;1.88;;
43678;SDS011;29279;50.858;4.392;2023-08-01T13:51:06;6.00;;;2.05;;
43678;SDS011;29279;50.858;4.392;2023-08-01T13:53:32;7.70;;;2.13;;
43678;SDS011;29279;50.858;4.392;2023-08-01T13:55:58;8.77;;;2.08;;
43678;SDS011;29279;50.858;4.392;2023-08-01T13:58:24;7.75;;;2.25;;
43678;SDS011;29279;50.858;4.392;2023-08-01T14:00:50;6.55;;;1.95;;
43678;SDS011;29279;50.858;4.392;2023-08-01T14:03:16;9.63;;;2.25;;
43678;SDS011;29279;50.858;4.392;2023-08-01T14:05:41;10.50;;;2.65;;
43678;SDS011;29279;50.858;4.392;2023-08-01T14:08:07;8.18;;;2.40;;
43678;SDS011;29279;50.858;4.392;2023-08-01T14:10:33;9.80;;;1.98;;
43678;SDS011;29279;50.858;4.392;2023-08-01T14:12:58;6.95;;;2.00;;
43678;SDS011;29279;50.858;4.392;2023-08-01T14:15:24;4.97;;;1.40;;
43678;SDS011;29279;50.858;4.392;2023-08-01T14:17:50;5.20;;;1.83;;
43678;SDS011;29279;50.858;4.392;2023-08-01T14:20:15;7.18;;;1.63;;
43678;SDS011;29279;50.858;4.392;2023-08-01T14:22:41;7.22;;;1.90;;
43678;SDS011;29279;50.858;4.392;2023-08-01T14:25:11;6.60;;;1.70;;
43678;SDS011;29279;50.858;4.392;2023-08-01T14:27:36;6.70;;;1.80;;
43678;SDS011;29279;50.858;4.392;2023-08-01T14:30:02;8.98;;;1.98;;
43678;SDS011;29279;50.858;4.392;2023-08-01T14:32:36;5.55;;;2.33;;
43678;SDS011;29279;50.858;4.392;2023-08-01T14:35:02;6.65;;;1.60;;
43678;SDS011;29279;50.858;4.392;2023-08-01T14:37:28;8.40;;;1.95;;
43678;SDS011;29279;50.858;4.392;2023-08-01T14:39:54;8.52;;;2.25;;
43678;SDS011;29279;50.858;4.392;2023-08-01T14:42:20;7.28;;;1.70;;
43678;SDS011;29279;50.858;4.392;2023-08-01T14:44:50;9.30;;;2.35;;
43678;SDS011;29279;50.858;4.392;2023-08-01T14:47:18;18.00;;;2.50;;